Spring Grove, Illinois
Current Conditions -  °F | °C
As of 8:55 PM on Friday 21 Nov 2014 (Local Time) from KBUU Reporting Station
Broken Clouds Broken Clouds  
Wind Chill: 17°   Ceiling: 3000
Heat Index: 27°   Visibility: 10mi
Dew Point: 10°   Wind: 12mph
Humidity: 49%   Direction: 190°S
Pressure: 30.18"   Gusts: NA
Location:  42.44°N, 88.24°W
Report Text: KBUU 220255Z AUTO 19010KT 10SM BKN030 M03/M12 A3018 RMK AO2 T10271120
Loading
Personal Weather Stations






























Interactive Weather Map New forecast layout! Learn more

10-Day Weather Forecast

Advertisements
Track Severe Weather on mobile